createdAt,value
2022-10-22T00:00:43.548Z,7.20
2022-10-22T00:03:10.620Z,7.23
2022-10-22T00:05:37.670Z,7.25
2022-10-22T00:08:04.774Z,7.27
2022-10-22T00:10:32.065Z,7.30
2022-10-22T00:12:59.219Z,7.32
2022-10-22T00:15:26.307Z,7.33
2022-10-22T00:17:53.389Z,7.33
2022-10-22T00:20:20.562Z,7.32
2022-10-22T00:22:47.673Z,7.29
2022-10-22T00:25:15.269Z,7.27
2022-10-22T00:27:42.841Z,7.26
2022-10-22T00:30:10.706Z,7.25
2022-10-22T00:32:38.312Z,7.25
2022-10-22T00:35:07.035Z,7.24
2022-10-22T00:37:34.010Z,7.21
2022-10-22T00:40:01.244Z,7.19
2022-10-22T00:42:30.457Z,7.16
2022-10-22T00:45:04.763Z,7.10
2022-10-22T00:47:37.870Z,7.07
2022-10-22T00:50:09.573Z,7.02
2022-10-22T00:52:37.256Z,6.99
2022-10-22T00:55:05.449Z,6.98
2022-10-22T00:57:34.530Z,7.01
2022-10-22T01:00:02.149Z,7.02
2022-10-22T01:02:31.034Z,7.04
2022-10-22T01:04:58.193Z,7.05
2022-10-22T01:07:26.338Z,7.08
2022-10-22T01:10:00.033Z,7.08
2022-10-22T01:12:46.382Z,7.12
2022-10-22T01:15:25.003Z,7.11
2022-10-22T01:17:52.101Z,7.07
2022-10-22T01:20:30.812Z,7.02
2022-10-22T01:23:22.425Z,6.98
2022-10-22T01:26:06.828Z,6.96
2022-10-22T01:28:54.513Z,6.95
2022-10-22T01:31:24.013Z,6.91
2022-10-22T01:33:54.832Z,6.95
2022-10-22T01:36:21.964Z,6.86
2022-10-22T01:38:50.113Z,6.89
2022-10-22T01:41:17.718Z,6.94
2022-10-22T01:43:44.768Z,6.98
2022-10-22T01:46:13.617Z,6.96
2022-10-22T01:49:05.476Z,7.00
2022-10-22T01:51:53.099Z,7.03
2022-10-22T01:54:29.947Z,7.07
2022-10-22T01:57:19.708Z,7.11
2022-10-22T02:00:06.288Z,7.12
2022-10-22T02:02:43.755Z,7.10
2022-10-22T02:05:25.549Z,7.12
2022-10-22T02:07:56.136Z,7.06
2022-10-22T02:10:24.979Z,7.02
2022-10-22T02:12:55.175Z,7.01
2022-10-22T02:15:45.402Z,6.98
2022-10-22T02:18:14.526Z,7.00
2022-10-22T02:20:42.650Z,6.98
2022-10-22T02:23:10.746Z,6.98
2022-10-22T02:25:42.176Z,6.99
2022-10-22T02:28:38.511Z,6.94
2022-10-22T02:31:15.909Z,6.97
2022-10-22T02:33:47.821Z,7.00
2022-10-22T02:36:17.717Z,7.02
2022-10-22T02:38:48.191Z,7.01
2022-10-22T02:41:16.977Z,6.98
2022-10-22T02:43:51.407Z,6.98
2022-10-22T02:46:18.506Z,6.97
2022-10-22T02:48:45.593Z,7.03
2022-10-22T02:51:12.768Z,7.08
2022-10-22T02:53:39.932Z,7.04
2022-10-22T02:56:07.243Z,7.11
2022-10-22T02:58:34.452Z,7.15
2022-10-22T03:01:01.767Z,7.17
2022-10-22T03:03:28.924Z,7.18
2022-10-22T03:05:55.949Z,7.18
2022-10-22T03:08:23.102Z,7.20
2022-10-22T03:10:50.197Z,7.21
2022-10-22T03:13:17.297Z,7.20
2022-10-22T03:15:44.329Z,7.16
2022-10-22T03:18:11.469Z,7.08
2022-10-22T03:20:38.448Z,7.06
2022-10-22T03:23:05.861Z,7.10
2022-10-22T03:25:34.713Z,7.12
2022-10-22T03:28:05.384Z,7.13
2022-10-22T03:30:32.497Z,7.04
2022-10-22T03:32:59.616Z,7.09
2022-10-22T03:35:27.046Z,7.13
2022-10-22T03:37:55.016Z,7.13
2022-10-22T03:40:22.352Z,7.09
2022-10-22T03:42:49.417Z,7.14
2022-10-22T03:45:16.683Z,7.08
2022-10-22T03:47:43.815Z,7.14
2022-10-22T03:50:10.922Z,7.16
2022-10-22T03:52:40.141Z,7.17
2022-10-22T03:55:08.715Z,7.06
2022-10-22T03:57:36.009Z,7.08
2022-10-22T04:00:05.972Z,7.13
2022-10-22T04:02:33.115Z,7.16
2022-10-22T04:05:01.165Z,7.22
2022-10-22T04:07:28.937Z,7.20
2022-10-22T04:09:56.342Z,7.26
2022-10-22T04:12:23.347Z,7.28
2022-10-22T04:14:50.492Z,7.33
2022-10-22T04:17:17.650Z,7.36
2022-10-22T04:19:45.566Z,7.38
2022-10-22T04:22:12.694Z,7.41
2022-10-22T04:24:39.792Z,7.44
2022-10-22T04:27:07.748Z,7.45
2022-10-22T04:29:34.850Z,7.47
2022-10-22T04:32:02.000Z,7.43
2022-10-22T04:34:29.300Z,7.47
2022-10-22T04:36:56.884Z,7.49
2022-10-22T04:39:23.996Z,7.49
2022-10-22T04:41:51.086Z,7.54
2022-10-22T04:44:18.324Z,7.57
2022-10-22T04:46:46.121Z,7.59
2022-10-22T04:49:13.252Z,7.59
2022-10-22T04:51:40.532Z,7.57
2022-10-22T04:54:08.191Z,7.57
2022-10-22T04:56:35.812Z,7.58
2022-10-22T04:59:07.189Z,7.57
2022-10-22T05:01:42.723Z,7.55
2022-10-22T05:04:16.285Z,7.54
2022-10-22T05:06:44.352Z,7.53
2022-10-22T05:09:17.481Z,7.58
2022-10-22T05:11:48.802Z,7.57
2022-10-22T05:14:20.037Z,7.57
2022-10-22T05:16:48.997Z,7.58
2022-10-22T05:19:24.251Z,7.60
2022-10-22T05:21:52.874Z,7.65
2022-10-22T05:24:19.957Z,7.67
2022-10-22T05:26:50.658Z,7.69
2022-10-22T05:29:17.506Z,7.62
2022-10-22T05:31:44.838Z,7.68
2022-10-22T05:34:12.041Z,7.76
2022-10-22T05:36:39.906Z,7.80
2022-10-22T05:39:07.439Z,7.86
2022-10-22T05:41:38.332Z,7.89
2022-10-22T05:44:06.091Z,7.90
2022-10-22T05:46:36.872Z,7.89
2022-10-22T05:49:06.170Z,7.92
2022-10-22T05:51:35.758Z,7.90
2022-10-22T05:54:05.130Z,7.92
2022-10-22T05:56:32.904Z,7.97
2022-10-22T05:59:01.049Z,7.96
2022-10-22T06:01:30.819Z,7.95
2022-10-22T06:04:00.619Z,8.06
2022-10-22T06:06:34.907Z,8.15
2022-10-22T06:09:07.068Z,8.24
2022-10-22T06:11:35.290Z,8.29
2022-10-22T06:14:04.184Z,8.29
2022-10-22T06:16:32.160Z,8.28
2022-10-22T06:19:02.217Z,8.25
2022-10-22T06:21:30.758Z,8.26
2022-10-22T06:23:58.937Z,8.26
2022-10-22T06:26:26.695Z,8.28
2022-10-22T06:28:55.825Z,8.31
2022-10-22T06:31:23.488Z,8.37
2022-10-22T06:33:50.611Z,8.49
2022-10-22T06:36:23.084Z,8.61
2022-10-22T06:38:54.895Z,8.73
2022-10-22T06:41:25.750Z,8.77
2022-10-22T06:43:57.886Z,8.82
2022-10-22T06:46:26.305Z,8.79
2022-10-22T06:48:59.014Z,8.86
2022-10-22T06:51:27.402Z,8.84
2022-10-22T06:53:58.108Z,8.80
2022-10-22T06:56:27.652Z,8.80
2022-10-22T06:58:56.953Z,8.76
2022-10-22T07:01:30.700Z,8.79
2022-10-22T07:03:58.687Z,8.77
2022-10-22T07:06:28.324Z,8.80
2022-10-22T07:08:57.279Z,8.72
2022-10-22T07:11:30.478Z,8.84
2022-10-22T07:14:00.183Z,8.92
2022-10-22T07:16:31.055Z,8.98
2022-10-22T07:19:00.698Z,9.01
2022-10-22T07:21:28.246Z,8.94
2022-10-22T07:23:55.409Z,8.89
2022-10-22T07:26:25.031Z,8.89
2022-10-22T07:28:52.146Z,8.93
2022-10-22T07:31:19.891Z,8.89
2022-10-22T07:33:46.881Z,8.95
2022-10-22T07:36:18.039Z,9.03
2022-10-22T07:38:53.233Z,9.13
2022-10-22T07:41:20.274Z,9.00
2022-10-22T07:43:47.217Z,9.07
2022-10-22T07:46:14.195Z,9.00
2022-10-22T07:48:41.389Z,8.91
2022-10-22T07:51:08.682Z,8.89
2022-10-22T07:53:35.999Z,8.87
2022-10-22T07:56:03.184Z,8.96
2022-10-22T07:58:30.504Z,8.98
2022-10-22T08:01:00.908Z,8.95
2022-10-22T08:03:29.181Z,8.99
2022-10-22T08:05:56.204Z,9.02
2022-10-22T08:08:25.921Z,9.03
2022-10-22T08:10:58.826Z,8.93
2022-10-22T08:13:26.496Z,8.96
2022-10-22T08:15:57.260Z,9.00
2022-10-22T08:18:25.355Z,9.00
2022-10-22T08:20:52.997Z,8.96
2022-10-22T08:23:24.400Z,8.96
2022-10-22T08:25:54.657Z,9.02
2022-10-22T08:28:22.370Z,9.14
2022-10-22T08:30:49.631Z,9.26
2022-10-22T08:33:16.775Z,9.31
2022-10-22T08:35:48.603Z,9.27
2022-10-22T08:38:15.684Z,9.32
2022-10-22T08:40:44.476Z,9.25
2022-10-22T08:43:41.956Z,9.28
2022-10-22T08:46:17.639Z,9.31
2022-10-22T08:48:52.795Z,9.27
2022-10-22T08:51:24.036Z,9.23
2022-10-22T08:54:21.875Z,9.18
2022-10-22T08:57:09.698Z,9.17
2022-10-22T08:59:50.734Z,9.03
2022-10-22T09:02:33.775Z,9.19
2022-10-22T09:05:22.847Z,9.29
2022-10-22T09:07:50.655Z,9.34
2022-10-22T09:10:21.979Z,9.42
2022-10-22T09:12:49.118Z,9.48
2022-10-22T09:15:18.441Z,9.55
2022-10-22T09:18:31.222Z,9.61
2022-10-22T09:21:29.304Z,9.66
2022-10-22T09:24:04.940Z,9.76
2022-10-22T09:26:35.624Z,9.87
2022-10-22T09:29:04.208Z,9.84
2022-10-22T09:31:33.569Z,9.99
2022-10-22T09:34:06.221Z,10.03
2022-10-22T09:36:34.512Z,10.05
2022-10-22T09:39:01.618Z,10.02
2022-10-22T09:41:30.157Z,9.97
2022-10-22T09:43:58.416Z,9.86
2022-10-22T09:46:30.167Z,9.78
2022-10-22T09:49:06.865Z,9.75
2022-10-22T09:51:52.088Z,9.76
2022-10-22T09:54:21.857Z,9.77
2022-10-22T09:57:03.028Z,9.79
2022-10-22T09:59:33.460Z,9.68
2022-10-22T10:02:20.108Z,9.61
2022-10-22T10:04:57.791Z,9.68
2022-10-22T10:07:27.390Z,9.71
2022-10-22T10:09:55.008Z,9.83
2022-10-22T10:15:27.832Z,9.83
2022-10-22T10:18:08.790Z,9.83
2022-10-22T10:20:41.037Z,9.86
2022-10-22T10:23:25.481Z,9.89
2022-10-22T10:26:19.891Z,9.85
2022-10-22T10:29:04.841Z,9.83
2022-10-22T10:31:53.087Z,9.78
2022-10-22T10:34:58.415Z,9.71
2022-10-22T10:37:38.640Z,9.74
2022-10-22T10:40:20.752Z,9.72
2022-10-22T10:43:06.705Z,9.59
2022-10-22T10:46:00.655Z,9.60
2022-10-22T10:48:46.368Z,9.55
2022-10-22T10:51:39.521Z,9.48
2022-10-22T10:54:24.342Z,9.46
2022-10-22T10:57:02.482Z,9.47
2022-10-22T10:59:59.082Z,9.49
2022-10-22T11:02:45.355Z,9.52
2022-10-22T11:05:39.378Z,9.58
2022-10-22T11:08:21.432Z,9.63
2022-10-22T11:11:03.556Z,9.69
2022-10-22T11:13:46.132Z,9.76
2022-10-22T11:17:04.030Z,9.86
2022-10-22T11:19:50.877Z,9.98
2022-10-22T11:22:27.272Z,10.07
2022-10-22T11:25:01.473Z,10.08
2022-10-22T11:27:39.250Z,10.02
2022-10-22T11:30:15.303Z,9.91
2022-10-22T11:32:44.599Z,9.83
2022-10-22T11:35:25.842Z,9.76
2022-10-22T11:37:56.017Z,9.74
2022-10-22T11:40:46.693Z,9.64
2022-10-22T11:43:35.989Z,9.60
2022-10-22T11:46:08.952Z,9.56
2022-10-22T11:48:38.388Z,9.57
2022-10-22T11:51:44.128Z,9.54
2022-10-22T11:54:37.432Z,9.56
2022-10-22T11:57:38.181Z,9.53
2022-10-22T12:00:31.534Z,9.41
2022-10-22T12:03:33.563Z,9.46
2022-10-22T12:06:12.707Z,9.46
2022-10-22T12:08:54.645Z,9.39
2022-10-22T12:11:37.623Z,9.42
2022-10-22T12:14:30.080Z,9.44
2022-10-22T12:17:18.180Z,9.46
2022-10-22T12:19:47.819Z,9.43
2022-10-22T12:22:21.870Z,9.42
2022-10-22T12:24:52.010Z,9.42
2022-10-22T12:27:23.436Z,9.34
2022-10-22T12:29:58.223Z,9.39
2022-10-22T12:32:34.648Z,9.35
2022-10-22T12:35:09.309Z,9.39
2022-10-22T12:37:37.789Z,9.42
2022-10-22T12:40:18.642Z,9.48
2022-10-22T12:42:51.787Z,9.54
2022-10-22T12:45:19.347Z,9.57
2022-10-22T12:47:55.576Z,9.54
2022-10-22T12:50:31.491Z,9.51
2022-10-22T12:52:59.333Z,9.50
2022-10-22T12:55:27.255Z,9.51
2022-10-22T12:57:54.408Z,9.47
2022-10-22T13:00:21.779Z,9.42
2022-10-22T13:02:49.214Z,9.23
2022-10-22T13:05:17.946Z,9.19
2022-10-22T13:07:50.922Z,9.15
2022-10-22T13:10:25.676Z,9.08
2022-10-22T13:12:57.605Z,9.07
2022-10-22T13:15:27.615Z,8.95
2022-10-22T13:18:33.149Z,8.82
2022-10-22T13:21:03.299Z,8.52
2022-10-22T13:23:33.359Z,8.35
2022-10-22T13:26:05.196Z,8.19
2022-10-22T13:28:32.934Z,8.06
2022-10-22T13:31:02.930Z,7.93
2022-10-22T13:33:34.577Z,7.85
2022-10-22T13:36:02.451Z,7.84
2022-10-22T13:38:29.659Z,7.79
2022-10-22T13:40:57.606Z,7.84
2022-10-22T13:43:25.492Z,7.87
2022-10-22T13:45:55.875Z,7.91
2022-10-22T13:48:25.457Z,7.84
2022-10-22T13:50:53.808Z,7.92
2022-10-22T13:53:26.688Z,7.99
2022-10-22T13:55:53.871Z,8.03
2022-10-22T13:58:25.787Z,8.05
2022-10-22T14:00:58.466Z,8.02
2022-10-22T14:03:29.707Z,8.00
2022-10-22T14:05:57.522Z,7.95
2022-10-22T14:08:26.356Z,7.95
2022-10-22T14:10:53.939Z,7.98
2022-10-22T14:13:21.768Z,8.03
2022-10-22T14:15:51.611Z,8.07
2022-10-22T14:18:25.520Z,8.08
2022-10-22T14:20:55.336Z,8.04
2022-10-22T14:23:25.727Z,8.01
2022-10-22T14:25:53.424Z,7.97
2022-10-22T14:28:20.515Z,7.95
2022-10-22T14:30:47.740Z,7.96
2022-10-22T14:33:21.555Z,8.00
2022-10-22T14:35:49.793Z,8.01
2022-10-22T14:38:17.070Z,7.97
2022-10-22T14:40:45.640Z,7.92
2022-10-22T14:43:33.871Z,7.89
2022-10-22T14:46:00.853Z,7.84
2022-10-22T14:48:27.821Z,7.82
2022-10-22T14:50:54.923Z,7.81
2022-10-22T14:53:21.946Z,7.80
2022-10-22T14:55:51.579Z,7.84
2022-10-22T14:58:18.778Z,7.87
2022-10-22T15:00:45.776Z,7.89
2022-10-22T15:03:12.826Z,7.91
2022-10-22T15:05:44.930Z,7.91
2022-10-22T15:08:13.698Z,7.87
2022-10-22T15:10:40.884Z,7.89
2022-10-22T15:13:08.138Z,7.94
2022-10-22T15:15:39.462Z,7.97
2022-10-22T15:18:07.467Z,8.00
2022-10-22T15:20:34.476Z,8.00
2022-10-22T15:23:01.389Z,8.04
2022-10-22T15:25:28.877Z,8.07
2022-10-22T15:28:00.750Z,8.08
2022-10-22T15:30:31.827Z,8.06
2022-10-22T15:32:58.876Z,7.99
2022-10-22T15:35:28.866Z,8.02
2022-10-22T15:37:55.912Z,8.00
2022-10-22T15:40:22.797Z,8.05
2022-10-22T15:42:49.821Z,8.10
2022-10-22T15:45:16.898Z,8.15
2022-10-22T15:47:49.172Z,8.18
2022-10-22T15:50:17.016Z,8.15
2022-10-22T15:52:43.956Z,8.15
2022-10-22T15:55:14.630Z,8.14
2022-10-22T15:57:41.964Z,8.15
2022-10-22T16:00:09.673Z,8.14
2022-10-22T16:02:39.844Z,8.12
2022-10-22T16:05:07.466Z,8.11
2022-10-22T16:07:34.370Z,8.07
2022-10-22T16:10:03.738Z,8.07
2022-10-22T16:12:30.925Z,8.06
2022-10-22T16:14:57.830Z,7.99
2022-10-22T16:17:24.892Z,7.97
2022-10-22T16:19:51.870Z,7.83
2022-10-22T16:22:18.863Z,7.80
2022-10-22T16:24:45.815Z,7.78
2022-10-22T16:27:12.777Z,7.80
2022-10-22T16:29:40.249Z,7.73
2022-10-22T16:32:07.675Z,7.77
2022-10-22T16:34:34.747Z,7.77
2022-10-22T16:37:02.718Z,7.73
2022-10-22T16:39:29.649Z,7.70
2022-10-22T16:41:56.577Z,7.65
2022-10-22T16:44:23.858Z,7.67
2022-10-22T16:46:50.800Z,7.67
2022-10-22T16:49:17.838Z,7.62
2022-10-22T16:51:44.933Z,7.62
2022-10-22T16:54:12.730Z,7.59
2022-10-22T16:56:40.043Z,7.56
2022-10-22T16:59:07.590Z,7.55
2022-10-22T17:01:38.122Z,7.58
2022-10-22T17:04:09.446Z,7.62
2022-10-22T17:06:36.485Z,7.64
2022-10-22T17:09:03.874Z,7.66
2022-10-22T17:11:35.714Z,7.66
2022-10-22T17:14:04.584Z,7.69
2022-10-22T17:16:31.619Z,7.71
2022-10-22T17:18:58.663Z,7.70
2022-10-22T17:21:25.770Z,7.70
2022-10-22T17:23:57.364Z,7.70
2022-10-22T17:26:26.579Z,7.69
2022-10-22T17:28:54.102Z,7.69
2022-10-22T17:31:24.542Z,7.71
2022-10-22T17:33:53.542Z,7.73
2022-10-22T17:36:22.012Z,7.76
2022-10-22T17:38:52.404Z,7.78
2022-10-22T17:41:24.931Z,7.79
2022-10-22T17:43:52.720Z,7.78
2022-10-22T17:46:24.743Z,7.81
2022-10-22T17:48:53.731Z,7.81
2022-10-22T17:51:21.660Z,7.84
2022-10-22T17:53:52.188Z,7.86
2022-10-22T17:56:22.111Z,7.88
2022-10-22T17:58:49.694Z,7.86
2022-10-22T18:01:31.445Z,7.89
2022-10-22T18:04:04.955Z,7.91
2022-10-22T18:06:32.585Z,7.91
2022-10-22T18:08:59.676Z,7.92
2022-10-22T18:11:28.290Z,7.93
2022-10-22T18:13:57.417Z,7.92
2022-10-22T18:16:25.826Z,7.91
2022-10-22T18:18:54.958Z,7.89
2022-10-22T18:21:24.139Z,7.84
2022-10-22T18:23:51.288Z,7.88
2022-10-22T18:26:21.405Z,7.87
2022-10-22T18:28:51.316Z,7.84
2022-10-22T18:31:20.582Z,7.84
2022-10-22T18:33:48.417Z,7.85
2022-10-22T18:36:19.303Z,7.81
2022-10-22T18:39:00.370Z,7.80
2022-10-22T18:41:29.594Z,7.77
2022-10-22T18:43:59.093Z,7.73
2022-10-22T18:46:27.153Z,7.74
2022-10-22T18:48:55.697Z,7.73
2022-10-22T18:51:25.751Z,7.74
2022-10-22T18:54:05.817Z,7.75
2022-10-22T18:56:43.860Z,7.73
2022-10-22T18:59:25.070Z,7.79
2022-10-22T19:01:54.546Z,7.75
2022-10-22T19:04:21.990Z,7.78
2022-10-22T19:06:49.044Z,7.78
2022-10-22T19:09:16.730Z,7.74
2022-10-22T19:11:45.218Z,7.77
2022-10-22T19:14:15.603Z,7.77
2022-10-22T19:16:42.740Z,7.74
2022-10-22T19:19:09.720Z,7.75
2022-10-22T19:21:37.982Z,7.78
2022-10-22T19:24:05.176Z,7.77
2022-10-22T19:26:32.651Z,7.77
2022-10-22T19:29:00.276Z,7.79
2022-10-22T19:31:30.124Z,7.79
2022-10-22T19:33:58.545Z,7.81
2022-10-22T19:36:28.315Z,7.84
2022-10-22T19:38:55.938Z,7.83
2022-10-22T19:41:24.981Z,7.87
2022-10-22T19:43:53.924Z,7.78
2022-10-22T19:46:23.104Z,7.80
2022-10-22T19:48:51.522Z,7.68
2022-10-22T19:51:27.549Z,7.67
2022-10-22T19:54:04.286Z,7.69
2022-10-22T19:56:33.883Z,7.69
2022-10-22T19:59:01.054Z,7.67
2022-10-22T20:01:28.361Z,7.70
2022-10-22T20:03:55.392Z,7.67
2022-10-22T20:06:22.340Z,7.67
2022-10-22T20:08:52.377Z,7.61
2022-10-22T20:11:25.292Z,7.58
2022-10-22T20:13:52.783Z,7.56
2022-10-22T20:16:23.267Z,7.59
2022-10-22T20:18:51.645Z,7.59
2022-10-22T20:21:19.894Z,7.60
2022-10-22T20:23:49.184Z,7.57
2022-10-22T20:26:16.139Z,7.57
2022-10-22T20:28:43.056Z,7.56
2022-10-22T20:31:12.065Z,7.56
2022-10-22T20:33:39.497Z,7.59
2022-10-22T20:36:09.708Z,7.57
2022-10-22T20:41:12.428Z,7.57
2022-10-22T20:43:39.301Z,7.46
2022-10-22T20:46:06.414Z,7.55
2022-10-22T20:48:33.748Z,7.56
2022-10-22T20:51:01.811Z,7.55
2022-10-22T20:53:28.916Z,7.53
2022-10-22T20:55:59.063Z,7.54
2022-10-22T20:58:27.761Z,7.52
2022-10-22T21:00:55.577Z,7.54
2022-10-22T21:03:22.992Z,7.52
2022-10-22T21:05:50.451Z,7.51
2022-10-22T21:08:17.823Z,7.56
2022-10-22T21:10:49.262Z,7.59
2022-10-22T21:13:16.972Z,7.63
2022-10-22T21:15:44.620Z,7.66
2022-10-22T21:18:11.661Z,7.69
2022-10-22T21:20:41.974Z,7.68
2022-10-22T21:23:10.358Z,7.59
2022-10-22T21:25:40.800Z,7.62
2022-10-22T21:28:10.306Z,7.62
2022-10-22T21:30:37.388Z,7.58
2022-10-22T21:33:04.308Z,7.60
2022-10-22T21:35:32.511Z,7.54
2022-10-22T21:37:59.451Z,7.58
2022-10-22T21:40:27.669Z,7.59
2022-10-22T21:42:54.645Z,7.64
2022-10-22T21:45:22.575Z,7.63
2022-10-22T21:47:49.687Z,7.65
2022-10-22T21:50:16.838Z,7.67
2022-10-22T21:52:43.794Z,7.69
2022-10-22T21:55:10.889Z,7.67
2022-10-22T21:57:39.203Z,7.71
2022-10-22T22:00:08.239Z,7.73
2022-10-22T22:02:35.275Z,7.72
2022-10-22T22:05:02.223Z,7.71
2022-10-22T22:07:30.268Z,7.70
2022-10-22T22:09:57.264Z,7.67
2022-10-22T22:12:24.365Z,7.67
2022-10-22T22:14:51.247Z,7.68
2022-10-22T22:17:18.728Z,7.70
2022-10-22T22:19:45.635Z,7.67
2022-10-22T22:22:12.577Z,7.67
2022-10-22T22:24:39.962Z,7.65
2022-10-22T22:27:07.492Z,7.65
2022-10-22T22:29:34.824Z,7.58
2022-10-22T22:32:01.847Z,7.47
2022-10-22T22:34:28.861Z,7.53
2022-10-22T22:36:55.804Z,7.45
2022-10-22T22:39:23.638Z,7.42
2022-10-22T22:41:50.938Z,7.50
2022-10-22T22:44:18.113Z,7.43
2022-10-22T22:46:45.188Z,7.41
2022-10-22T22:49:13.426Z,7.44
2022-10-22T22:51:40.331Z,7.45
2022-10-22T22:54:07.514Z,7.46
2022-10-22T22:56:34.744Z,7.51
2022-10-22T22:59:02.644Z,7.51
2022-10-22T23:01:34.304Z,7.51
2022-10-22T23:04:13.190Z,7.48
2022-10-22T23:06:40.381Z,7.44
2022-10-22T23:09:09.939Z,7.44
2022-10-22T23:11:37.203Z,7.48
2022-10-22T23:14:06.379Z,7.48
2022-10-22T23:16:36.822Z,7.50
2022-10-22T23:19:05.544Z,7.53
2022-10-22T23:21:35.949Z,7.51
2022-10-22T23:24:06.078Z,7.51
2022-10-22T23:26:38.751Z,7.51
2022-10-22T23:29:09.148Z,7.50
2022-10-22T23:31:36.327Z,7.49
2022-10-22T23:34:03.566Z,7.53
2022-10-22T23:36:30.630Z,7.55
2022-10-22T23:38:57.664Z,7.54
2022-10-22T23:41:24.729Z,7.55
2022-10-22T23:43:51.758Z,7.55
2022-10-22T23:46:18.775Z,7.59
2022-10-22T23:48:45.839Z,7.60
2022-10-22T23:51:15.410Z,7.57
2022-10-22T23:53:44.311Z,7.54
2022-10-22T23:56:15.325Z,7.51
2022-10-22T23:58:42.730Z,7.48
